createdAt,value
2018-03-03T00:00:08.844Z,44.20
2018-03-03T00:01:08.823Z,37.20
2018-03-03T00:02:08.779Z,42.20
2018-03-03T00:03:08.768Z,40.70
2018-03-03T00:04:08.742Z,40.20
2018-03-03T00:05:08.719Z,40.40
2018-03-03T00:06:08.707Z,35.50
2018-03-03T00:07:08.698Z,29.70
2018-03-03T00:08:08.684Z,33.70
2018-03-03T00:09:08.650Z,35.00
2018-03-03T00:10:08.632Z,34.50
2018-03-03T00:11:08.612Z,36.70
2018-03-03T00:12:08.617Z,36.10
2018-03-03T00:13:08.575Z,40.30
2018-03-03T00:14:08.585Z,34.10
2018-03-03T00:15:08.531Z,40.80
2018-03-03T00:16:08.527Z,45.60
2018-03-03T00:17:08.501Z,39.90
2018-03-03T00:18:08.483Z,36.90
2018-03-03T00:19:08.460Z,37.70
2018-03-03T00:20:08.471Z,34.30
2018-03-03T00:21:08.422Z,35.40
2018-03-03T00:22:08.417Z,36.80
2018-03-03T00:23:08.411Z,34.40
2018-03-03T00:24:08.395Z,40.10
2018-03-03T00:25:08.358Z,36.80
2018-03-03T00:26:08.358Z,39.20
2018-03-03T00:27:08.309Z,41.10
2018-03-03T00:28:08.320Z,37.30
2018-03-03T00:29:08.287Z,36.90
2018-03-03T00:30:08.256Z,37.20
2018-03-03T00:31:08.260Z,43.40
2018-03-03T00:32:08.229Z,40.90
2018-03-03T00:33:08.198Z,44.20
2018-03-03T00:34:08.205Z,51.10
2018-03-03T00:35:08.186Z,51.20
2018-03-03T00:36:08.164Z,48.50
2018-03-03T00:37:08.119Z,46.60
2018-03-03T00:38:08.102Z,41.20
2018-03-03T00:39:08.107Z,41.20
2018-03-03T00:40:08.091Z,44.70
2018-03-03T00:41:08.068Z,39.60
2018-03-03T00:42:08.023Z,41.40
2018-03-03T00:43:08.034Z,45.60
2018-03-03T00:44:07.986Z,40.30
2018-03-03T00:45:07.995Z,47.80
2018-03-03T00:46:07.978Z,44.60
2018-03-03T00:47:07.956Z,50.00
2018-03-03T00:48:07.914Z,49.40
2018-03-03T00:49:07.925Z,39.10
2018-03-03T00:50:07.873Z,42.60
2018-03-03T00:51:07.861Z,44.50
2018-03-03T00:52:07.843Z,49.30
2018-03-03T00:53:07.823Z,59.40
2018-03-03T00:54:07.811Z,53.50
2018-03-03T00:55:07.781Z,49.10
2018-03-03T00:56:07.768Z,44.50
2018-03-03T00:57:07.761Z,46.10
2018-03-03T00:58:07.722Z,48.40
2018-03-03T00:59:07.715Z,51.80
2018-03-03T01:00:07.695Z,47.60
2018-03-03T01:01:07.690Z,44.30
2018-03-03T01:02:07.651Z,41.80
2018-03-03T01:03:07.654Z,45.10
2018-03-03T01:04:07.646Z,44.90
2018-03-03T01:05:07.603Z,43.40
2018-03-03T01:06:07.592Z,43.80
2018-03-03T01:07:07.556Z,42.40
2018-03-03T01:08:07.564Z,47.30
2018-03-03T01:09:07.552Z,48.30
2018-03-03T01:10:07.507Z,47.60
2018-03-03T01:11:07.506Z,52.40
2018-03-03T01:12:07.489Z,61.10
2018-03-03T01:13:07.457Z,66.80
2018-03-03T01:14:07.447Z,59.80
2018-03-03T01:15:07.416Z,57.60
2018-03-03T01:16:07.387Z,66.80
2018-03-03T01:17:07.390Z,70.20
2018-03-03T01:18:07.371Z,65.60
2018-03-03T01:19:07.335Z,79.30
2018-03-03T01:20:07.315Z,75.70
2018-03-03T01:21:07.299Z,71.10
2018-03-03T01:22:07.298Z,75.90
2018-03-03T01:23:07.252Z,83.20
2018-03-03T01:24:07.231Z,82.30
2018-03-03T01:25:07.231Z,80.50
2018-03-03T01:26:07.198Z,75.80
2018-03-03T01:27:07.202Z,83.80
2018-03-03T01:28:07.153Z,91.20
2018-03-03T01:29:07.135Z,98.20
2018-03-03T01:30:07.141Z,100.60
2018-03-03T01:31:07.110Z,96.20
2018-03-03T01:32:07.085Z,104.10
2018-03-03T01:33:07.068Z,106.10
2018-03-03T01:34:07.051Z,117.20
2018-03-03T01:35:07.037Z,118.40
2018-03-03T01:36:07.009Z,121.80
2018-03-03T01:37:06.981Z,130.10
2018-03-03T01:38:06.965Z,139.40
2018-03-03T01:39:06.970Z,146.00
2018-03-03T01:40:06.918Z,141.10
2018-03-03T01:41:06.908Z,144.60
2018-03-03T01:42:06.911Z,141.50
2018-03-03T01:43:06.875Z,136.00
2018-03-03T01:44:06.873Z,149.70
2018-03-03T01:45:06.836Z,132.00
2018-03-03T01:46:06.810Z,134.10
2018-03-03T01:47:06.792Z,144.50
2018-03-03T01:48:06.766Z,156.20
2018-03-03T01:49:06.753Z,146.50
2018-03-03T01:50:06.737Z,146.80
2018-03-03T01:51:06.737Z,163.60
2018-03-03T01:52:06.693Z,155.50
2018-03-03T01:53:06.698Z,165.60
2018-03-03T01:54:06.676Z,150.70
2018-03-03T01:55:06.665Z,158.70
2018-03-03T01:56:06.614Z,153.20
2018-03-03T01:57:06.603Z,160.10
2018-03-03T01:58:06.597Z,155.80
2018-03-03T01:59:06.554Z,169.90
2018-03-03T02:00:06.568Z,160.10
2018-03-03T02:01:06.540Z,160.20
2018-03-03T02:02:06.507Z,156.80
2018-03-03T02:03:06.483Z,126.70
2018-03-03T02:04:06.483Z,111.40
2018-03-03T02:05:06.435Z,125.60
2018-03-03T02:06:06.422Z,133.50
2018-03-03T02:07:06.404Z,106.80
2018-03-03T02:08:06.380Z,97.30
2018-03-03T02:09:06.386Z,102.80
2018-03-03T02:10:06.344Z,94.60
2018-03-03T02:11:06.350Z,72.40
2018-03-03T02:12:06.333Z,75.70
2018-03-03T02:13:06.309Z,59.30
2018-03-03T02:14:06.289Z,40.20
2018-03-03T02:15:06.241Z,50.70
2018-03-03T02:16:06.236Z,52.80
2018-03-03T02:17:06.221Z,42.00
2018-03-03T02:18:06.205Z,34.20
2018-03-03T02:19:06.168Z,39.20
2018-03-03T02:20:06.154Z,43.30
2018-03-03T02:21:06.129Z,48.10
2018-03-03T02:22:06.111Z,40.80
2018-03-03T02:23:06.091Z,39.90
2018-03-03T02:24:06.093Z,40.40
2018-03-03T02:25:06.051Z,43.80
2018-03-03T02:26:06.044Z,43.70
2018-03-03T02:27:06.042Z,45.30
2018-03-03T02:28:05.995Z,41.00
2018-03-03T02:29:05.983Z,45.00
2018-03-03T02:30:05.982Z,44.90
2018-03-03T02:31:05.958Z,41.40
2018-03-03T02:32:05.925Z,41.70
2018-03-03T02:33:05.898Z,34.00
2018-03-03T02:34:05.871Z,31.20
2018-03-03T02:35:05.883Z,31.80
2018-03-03T02:36:05.863Z,42.00
2018-03-03T02:37:05.818Z,29.00
2018-03-03T02:38:05.798Z,25.50
2018-03-03T02:39:05.804Z,18.00
2018-03-03T02:40:05.783Z,13.80
2018-03-03T02:41:05.737Z,18.00
2018-03-03T02:42:05.713Z,19.40
2018-03-03T02:43:05.730Z,14.60
2018-03-03T02:44:05.704Z,13.80
2018-03-03T02:45:05.661Z,9.80
2018-03-03T02:46:05.637Z,12.70
2018-03-03T02:47:05.628Z,14.20
2018-03-03T02:48:05.604Z,16.00
2018-03-03T02:49:05.591Z,13.60
2018-03-03T02:50:05.575Z,13.90
2018-03-03T02:51:05.535Z,14.00
2018-03-03T02:52:05.545Z,13.60
2018-03-03T02:53:05.509Z,12.40
2018-03-03T02:54:05.508Z,9.60
2018-03-03T02:55:05.486Z,11.30
2018-03-03T02:56:05.443Z,9.50
2018-03-03T02:57:05.433Z,8.10
2018-03-03T02:58:05.400Z,10.90
2018-03-03T02:59:05.395Z,7.60
2018-03-03T03:00:05.358Z,5.30
2018-03-03T03:01:05.345Z,7.30
2018-03-03T03:02:05.324Z,8.20
2018-03-03T03:03:05.298Z,5.10
2018-03-03T03:04:05.311Z,7.30
2018-03-03T03:05:05.267Z,4.10
2018-03-03T03:06:05.247Z,4.80
2018-03-03T03:07:05.221Z,5.70
2018-03-03T03:08:05.201Z,2.90
2018-03-03T03:09:05.198Z,2.50
2018-03-03T03:10:05.178Z,3.20
2018-03-03T03:11:05.170Z,2.80
2018-03-03T03:12:05.129Z,3.60
2018-03-03T03:13:05.100Z,2.70
2018-03-03T03:14:05.087Z,2.80
2018-03-03T03:15:05.090Z,4.20
2018-03-03T03:16:05.069Z,3.00
2018-03-03T03:17:05.049Z,2.40
2018-03-03T03:18:05.029Z,2.60
2018-03-03T03:19:05.012Z,2.70
2018-03-03T03:20:04.967Z,4.10
2018-03-03T03:21:04.971Z,3.00
2018-03-03T03:22:04.927Z,2.80
2018-03-03T03:23:04.919Z,2.70
2018-03-03T03:24:04.912Z,3.80
2018-03-03T03:25:04.866Z,4.10
2018-03-03T03:26:04.843Z,3.70
2018-03-03T03:27:04.828Z,2.40
2018-03-03T03:28:04.818Z,2.00
2018-03-03T03:29:04.810Z,2.80
2018-03-03T03:30:04.766Z,2.20
2018-03-03T03:31:04.746Z,2.90
2018-03-03T03:32:04.753Z,2.20
2018-03-03T03:33:04.738Z,1.90
2018-03-03T03:34:04.690Z,2.00
2018-03-03T03:35:04.752Z,4.20
2018-03-03T03:36:04.651Z,2.00
2018-03-03T03:37:04.655Z,2.40
2018-03-03T03:38:04.635Z,1.90
2018-03-03T03:39:04.613Z,2.10
2018-03-03T03:40:04.594Z,2.40
2018-03-03T03:41:04.552Z,2.40
2018-03-03T03:42:04.553Z,2.30
2018-03-03T03:43:04.524Z,2.20
2018-03-03T03:44:04.492Z,2.20
2018-03-03T03:45:04.502Z,2.20
2018-03-03T03:46:04.449Z,1.90
2018-03-03T03:47:04.455Z,1.90
2018-03-03T03:48:04.413Z,3.90
2018-03-03T03:49:04.404Z,2.30
2018-03-03T03:50:04.400Z,3.00
2018-03-03T03:51:04.379Z,2.60
2018-03-03T03:52:04.352Z,2.10
2018-03-03T03:53:04.324Z,2.30
2018-03-03T03:54:04.320Z,3.00
2018-03-03T03:55:04.275Z,1.90
2018-03-03T03:56:04.282Z,2.30
2018-03-03T03:57:04.260Z,2.90
2018-03-03T03:58:04.239Z,3.00
2018-03-03T03:59:04.197Z,1.90
2018-03-03T04:00:04.201Z,4.90
2018-03-03T04:01:04.155Z,2.50
2018-03-03T04:02:04.161Z,2.50
2018-03-03T04:03:04.148Z,2.20
2018-03-03T04:04:04.101Z,2.80
2018-03-03T04:05:04.105Z,2.30
2018-03-03T04:06:04.060Z,1.80
2018-03-03T04:07:04.153Z,1.80
2018-03-03T04:08:04.032Z,2.10
2018-03-03T04:09:04.002Z,3.80
2018-03-03T04:10:03.984Z,3.40
2018-03-03T04:11:03.976Z,3.40
2018-03-03T04:12:03.945Z,2.50
2018-03-03T04:13:03.918Z,3.20
2018-03-03T04:14:03.930Z,2.70
2018-03-03T04:15:03.883Z,2.10
2018-03-03T04:16:03.863Z,3.60
2018-03-03T04:17:03.856Z,2.30
2018-03-03T04:18:03.852Z,3.30
2018-03-03T04:19:03.836Z,2.60
2018-03-03T04:20:03.816Z,2.80
2018-03-03T04:21:03.794Z,3.40
2018-03-03T04:22:03.753Z,3.10
2018-03-03T04:23:03.727Z,2.60
2018-03-03T04:24:03.710Z,2.30
2018-03-03T04:25:03.720Z,3.30
2018-03-03T04:26:03.675Z,3.80
2018-03-03T04:27:03.649Z,2.40
2018-03-03T04:28:03.663Z,4.00
2018-03-03T04:29:03.614Z,2.90
2018-03-03T04:30:03.632Z,3.00
2018-03-03T04:31:03.600Z,2.20
2018-03-03T04:32:03.577Z,3.80
2018-03-03T04:33:03.560Z,2.60
2018-03-03T04:34:03.538Z,2.60
2018-03-03T04:35:03.555Z,4.10
2018-03-03T04:36:03.479Z,2.40
2018-03-03T04:37:03.469Z,2.10
2018-03-03T04:38:03.459Z,2.50
2018-03-03T04:39:03.441Z,2.20
2018-03-03T04:40:03.409Z,2.30
2018-03-03T04:41:03.409Z,2.50
2018-03-03T04:42:03.353Z,2.70
2018-03-03T04:43:03.362Z,4.30
2018-03-03T04:44:03.324Z,3.40
2018-03-03T04:45:03.312Z,4.20
2018-03-03T04:46:03.285Z,2.70
2018-03-03T04:47:03.261Z,2.90
2018-03-03T04:48:03.239Z,4.00
2018-03-03T04:49:03.217Z,3.10
2018-03-03T04:50:03.237Z,2.80
2018-03-03T04:51:03.207Z,2.90
2018-03-03T04:52:03.161Z,3.60
2018-03-03T04:53:03.172Z,2.90
2018-03-03T04:54:03.122Z,3.00
2018-03-03T04:55:03.105Z,3.10
2018-03-03T04:56:03.097Z,4.10
2018-03-03T04:57:03.068Z,2.80
2018-03-03T04:58:03.082Z,3.20
2018-03-03T04:59:03.032Z,3.70
2018-03-03T05:00:03.002Z,5.30
2018-03-03T05:01:02.986Z,5.50
2018-03-03T05:02:02.978Z,3.80
2018-03-03T05:03:03.034Z,3.20
2018-03-03T05:04:02.943Z,3.10
2018-03-03T05:05:02.908Z,3.20
2018-03-03T05:06:02.900Z,3.10
2018-03-03T05:07:02.869Z,3.60
2018-03-03T05:08:02.876Z,3.00
2018-03-03T05:09:02.856Z,2.80
2018-03-03T05:10:02.836Z,2.50
2018-03-03T05:11:02.818Z,2.60
2018-03-03T05:12:02.801Z,4.40
2018-03-03T05:13:02.750Z,3.90
2018-03-03T05:14:02.762Z,2.70
2018-03-03T05:15:02.712Z,3.70
2018-03-03T05:16:02.709Z,5.00
2018-03-03T05:17:02.703Z,4.80
2018-03-03T05:18:02.689Z,8.30
2018-03-03T05:19:02.641Z,5.70
2018-03-03T05:20:02.647Z,5.80
2018-03-03T05:21:02.621Z,3.90
2018-03-03T05:22:02.671Z,3.90
2018-03-03T05:23:02.577Z,4.60
2018-03-03T05:24:02.543Z,4.40
2018-03-03T05:25:02.548Z,3.60
2018-03-03T05:26:02.532Z,5.50
2018-03-03T05:27:02.486Z,9.10
2018-03-03T05:28:02.471Z,10.80
2018-03-03T05:29:02.442Z,11.80
2018-03-03T05:30:02.448Z,7.80
2018-03-03T05:31:02.432Z,8.80
2018-03-03T05:32:02.407Z,7.90
2018-03-03T05:33:02.380Z,7.40
2018-03-03T05:34:02.344Z,5.90
2018-03-03T05:35:02.356Z,6.70
2018-03-03T05:36:02.310Z,6.50
2018-03-03T05:37:02.308Z,8.90
2018-03-03T05:38:02.296Z,7.20
2018-03-03T05:39:02.248Z,8.20
2018-03-03T05:40:02.251Z,8.40
2018-03-03T05:41:02.208Z,4.50
2018-03-03T05:42:02.184Z,5.10
2018-03-03T05:43:02.169Z,4.00
2018-03-03T05:44:02.172Z,5.00
2018-03-03T05:45:02.204Z,3.60
2018-03-03T05:46:02.123Z,3.70
2018-03-03T05:47:02.116Z,3.10
2018-03-03T05:48:02.093Z,4.50
2018-03-03T05:49:02.060Z,4.10
2018-03-03T05:50:02.055Z,3.00
2018-03-03T05:51:02.014Z,3.10
2018-03-03T05:52:02.010Z,3.10
2018-03-03T05:53:01.974Z,5.50
2018-03-03T05:54:01.955Z,5.00
2018-03-03T05:55:01.960Z,4.40
2018-03-03T05:56:01.940Z,5.60
2018-03-03T05:57:01.922Z,3.30
2018-03-03T05:58:01.884Z,2.90
2018-03-03T05:59:01.857Z,3.70
2018-03-03T06:00:01.860Z,3.40
2018-03-03T06:01:01.843Z,3.90
2018-03-03T06:02:01.822Z,4.00
2018-03-03T06:03:01.794Z,3.50
2018-03-03T06:04:01.757Z,3.50
2018-03-03T06:05:01.763Z,5.20
2018-03-03T06:06:01.746Z,4.00
2018-03-03T06:07:01.701Z,4.10
2018-03-03T06:08:01.706Z,3.60
2018-03-03T06:09:01.666Z,3.90
2018-03-03T06:10:01.637Z,3.80
2018-03-03T06:11:01.617Z,3.80
2018-03-03T06:12:01.604Z,3.70
2018-03-03T06:13:01.590Z,4.00
2018-03-03T06:14:01.589Z,4.20
2018-03-03T06:15:01.571Z,5.40
2018-03-03T06:16:01.551Z,7.20
2018-03-03T06:17:01.504Z,8.30
2018-03-03T06:18:01.488Z,8.30
2018-03-03T06:19:01.466Z,9.00
2018-03-03T06:20:01.468Z,8.90
2018-03-03T06:21:01.478Z,9.50
2018-03-03T06:22:01.429Z,9.60
2018-03-03T06:23:01.385Z,8.20
2018-03-03T06:24:01.377Z,8.70
2018-03-03T06:25:01.371Z,8.40
2018-03-03T06:26:01.343Z,7.60
2018-03-03T06:27:01.313Z,8.90
2018-03-03T06:28:01.300Z,7.80
2018-03-03T06:29:01.273Z,8.10
2018-03-03T06:30:01.258Z,8.50
2018-03-03T06:31:01.251Z,8.10
2018-03-03T06:32:01.219Z,7.80
2018-03-03T06:33:01.296Z,7.60
2018-03-03T06:34:01.163Z,7.70
2018-03-03T06:35:01.176Z,8.50
2018-03-03T06:36:01.159Z,8.50
2018-03-03T06:37:01.109Z,8.10
2018-03-03T06:38:01.091Z,9.80
2018-03-03T06:39:01.083Z,8.80
2018-03-03T06:40:01.072Z,8.00
2018-03-03T06:41:01.030Z,7.70
2018-03-03T06:42:01.007Z,6.30
2018-03-03T06:43:00.991Z,6.60
2018-03-03T06:44:00.996Z,6.90
2018-03-03T06:45:00.955Z,6.10
2018-03-03T06:46:00.932Z,7.00
2018-03-03T06:47:00.913Z,7.80
2018-03-03T06:48:00.986Z,6.60
2018-03-03T06:49:00.902Z,9.60
2018-03-03T06:50:00.849Z,6.70
2018-03-03T06:51:00.859Z,7.70
2018-03-03T06:52:00.836Z,7.80
2018-03-03T06:53:00.821Z,8.00
2018-03-03T06:54:00.774Z,7.80
2018-03-03T06:55:00.764Z,10.30
2018-03-03T06:56:00.738Z,9.40
2018-03-03T06:57:00.724Z,9.50
2018-03-03T06:58:00.717Z,9.80
2018-03-03T06:59:00.704Z,12.20
2018-03-03T07:00:00.681Z,9.50
2018-03-03T07:01:00.657Z,9.20
2018-03-03T07:02:00.642Z,9.40
2018-03-03T07:03:00.591Z,11.20
2018-03-03T07:04:00.598Z,9.60
2018-03-03T07:05:00.555Z,10.90
2018-03-03T07:06:00.564Z,11.20
2018-03-03T07:07:00.544Z,11.00
2018-03-03T07:08:00.496Z,11.60
2018-03-03T07:09:00.487Z,9.60
2018-03-03T07:10:00.486Z,11.20
2018-03-03T07:11:00.466Z,9.80
2018-03-03T07:12:00.417Z,11.40
2018-03-03T07:13:00.429Z,11.50
2018-03-03T07:14:00.385Z,9.60
2018-03-03T07:15:00.366Z,13.60
2018-03-03T07:16:00.376Z,11.10
2018-03-03T07:17:00.351Z,15.20
2018-03-03T07:18:00.300Z,14.70
2018-03-03T07:19:00.296Z,17.80
2018-03-03T07:20:00.260Z,15.40
2018-03-03T07:21:00.270Z,13.20
2018-03-03T07:22:00.253Z,13.50
2018-03-03T07:23:00.226Z,12.50
2018-03-03T07:24:00.213Z,12.90
2018-03-03T07:25:00.158Z,15.30
2018-03-03T07:26:00.143Z,14.90
2018-03-03T07:27:00.137Z,14.20
2018-03-03T07:28:00.113Z,14.90
2018-03-03T07:29:00.088Z,14.00
2018-03-03T07:30:00.086Z,11.20
2018-03-03T07:31:00.053Z,13.70
2018-03-03T07:32:00.166Z,14.30
2018-03-03T07:33:00.017Z,12.40
2018-03-03T07:33:59.987Z,13.40
2018-03-03T07:34:59.993Z,12.00
2018-03-03T07:35:59.977Z,12.40
2018-03-03T07:36:59.929Z,12.90
2018-03-03T07:37:59.939Z,15.00
2018-03-03T07:38:59.917Z,12.30
2018-03-03T07:39:59.876Z,12.50
2018-03-03T07:40:59.884Z,12.50
2018-03-03T07:41:59.836Z,12.20
2018-03-03T07:42:59.826Z,10.60
2018-03-03T07:43:59.822Z,9.80
2018-03-03T07:44:59.775Z,11.50
2018-03-03T07:45:59.756Z,12.40
2018-03-03T07:46:59.740Z,12.10
2018-03-03T07:47:59.743Z,13.60
2018-03-03T07:48:59.794Z,13.20
2018-03-03T07:49:59.705Z,10.10
2018-03-03T07:50:59.669Z,13.00
2018-03-03T07:51:59.658Z,14.60
2018-03-03T07:52:59.629Z,10.40
2018-03-03T07:53:59.611Z,11.20
2018-03-03T07:54:59.579Z,12.50
2018-03-03T07:55:59.585Z,12.10
2018-03-03T07:56:59.540Z,13.30
2018-03-03T07:57:59.528Z,12.70
2018-03-03T07:58:59.504Z,12.80
2018-03-03T07:59:59.480Z,11.10
2018-03-03T08:00:59.474Z,12.50
2018-03-03T08:01:59.444Z,9.50
2018-03-03T08:02:59.449Z,7.20
2018-03-03T08:03:59.408Z,7.90
2018-03-03T08:04:59.395Z,8.10
2018-03-03T08:05:59.364Z,7.60
2018-03-03T08:06:59.366Z,6.20
2018-03-03T08:07:59.337Z,6.50
2018-03-03T08:08:59.307Z,6.80
2018-03-03T08:09:59.276Z,5.90
2018-03-03T08:10:59.364Z,5.30
2018-03-03T08:11:59.244Z,6.20
2018-03-03T08:12:59.233Z,8.00
2018-03-03T08:13:59.213Z,9.80
2018-03-03T08:14:59.206Z,8.10
2018-03-03T08:15:59.165Z,8.60
2018-03-03T08:16:59.161Z,8.10
2018-03-03T08:17:59.121Z,8.60
2018-03-03T08:18:59.101Z,10.70
2018-03-03T08:19:59.081Z,14.40
2018-03-03T08:20:59.086Z,9.50
2018-03-03T08:21:59.048Z,9.10
2018-03-03T08:22:59.024Z,11.20
2018-03-03T08:23:59.003Z,9.20
2018-03-03T08:24:59.009Z,11.20
2018-03-03T08:25:58.978Z,8.10
2018-03-03T08:26:58.944Z,8.80
2018-03-03T08:27:58.951Z,7.80
2018-03-03T08:28:58.917Z,9.80
2018-03-03T08:29:58.909Z,9.80
2018-03-03T08:30:58.860Z,8.60
2018-03-03T08:31:58.867Z,9.30
2018-03-03T08:32:58.820Z,10.40
2018-03-03T08:33:58.805Z,8.60
2018-03-03T08:34:58.781Z,10.80
2018-03-03T08:35:58.765Z,10.50
2018-03-03T08:36:58.741Z,9.20
2018-03-03T08:37:58.720Z,9.20
2018-03-03T08:38:58.726Z,9.90
2018-03-03T08:39:58.686Z,10.90
2018-03-03T08:40:58.670Z,11.80
2018-03-03T08:41:58.641Z,11.20
2018-03-03T08:42:58.619Z,11.60
2018-03-03T08:43:58.656Z,15.20
2018-03-03T08:44:58.587Z,11.10
2018-03-03T08:45:58.573Z,9.50
2018-03-03T08:46:58.569Z,10.60
2018-03-03T08:47:58.545Z,13.00
2018-03-03T08:48:58.502Z,10.20
2018-03-03T08:49:58.484Z,10.00
2018-03-03T08:50:58.485Z,10.90
2018-03-03T08:51:58.443Z,10.10
2018-03-03T08:52:58.455Z,9.50
2018-03-03T08:53:58.400Z,12.20
2018-03-03T08:54:58.411Z,10.20
2018-03-03T08:55:58.390Z,9.80
2018-03-03T08:56:58.369Z,9.50
2018-03-03T08:57:58.327Z,11.00
2018-03-03T08:58:58.303Z,10.20
2018-03-03T08:59:58.279Z,8.90
2018-03-03T09:00:58.260Z,10.60
2018-03-03T09:01:58.264Z,12.30
2018-03-03T09:02:58.243Z,11.30
2018-03-03T09:03:58.199Z,12.80
2018-03-03T09:04:58.177Z,11.90
2018-03-03T09:05:58.186Z,11.60
2018-03-03T09:06:58.164Z,10.30
2018-03-03T09:07:58.119Z,11.00
2018-03-03T09:08:58.111Z,11.60
2018-03-03T09:09:58.094Z,13.20
2018-03-03T09:10:58.085Z,11.30
2018-03-03T09:11:58.048Z,10.40
2018-03-03T09:12:58.022Z,11.50
2018-03-03T09:13:58.001Z,9.80
2018-03-03T09:14:57.982Z,13.20
2018-03-03T09:15:57.966Z,9.70
2018-03-03T09:16:57.941Z,14.30
2018-03-03T09:17:57.924Z,12.20
2018-03-03T09:18:57.902Z,11.10
2018-03-03T09:19:57.907Z,9.60
2018-03-03T09:20:57.863Z,10.30
2018-03-03T09:21:57.871Z,12.50
2018-03-03T09:22:57.854Z,12.10
2018-03-03T09:23:57.806Z,10.80
2018-03-03T09:24:57.791Z,11.20
2018-03-03T09:25:57.768Z,14.20
2018-03-03T09:26:57.744Z,9.20
2018-03-03T09:27:57.738Z,12.40
2018-03-03T09:28:57.712Z,10.20
2018-03-03T09:29:57.708Z,12.90
2018-03-03T09:30:57.664Z,12.60
2018-03-03T09:31:57.645Z,15.70
2018-03-03T09:32:57.625Z,11.30
2018-03-03T09:33:57.607Z,9.60
2018-03-03T09:34:57.602Z,12.10
2018-03-03T09:35:57.568Z,12.30
2018-03-03T09:36:57.552Z,11.20
2018-03-03T09:37:57.526Z,11.00
2018-03-03T09:38:57.505Z,12.90
2018-03-03T09:39:57.514Z,11.90
2018-03-03T09:40:57.466Z,12.20
2018-03-03T09:41:57.448Z,12.40
2018-03-03T09:42:57.456Z,12.90
2018-03-03T09:43:57.437Z,14.20
2018-03-03T09:44:57.390Z,13.00
2018-03-03T09:45:57.372Z,14.70
2018-03-03T09:46:57.399Z,13.40
2018-03-03T09:47:57.334Z,13.40
2018-03-03T09:48:57.309Z,13.20
2018-03-03T09:49:57.292Z,14.60
2018-03-03T09:50:57.275Z,16.10
2018-03-03T09:51:57.260Z,13.00
2018-03-03T09:52:57.232Z,14.90
2018-03-03T09:53:57.218Z,14.50
2018-03-03T09:54:57.195Z,13.10
2018-03-03T09:55:57.188Z,13.20
2018-03-03T09:56:57.182Z,11.50
2018-03-03T09:57:57.167Z,12.30
2018-03-03T09:58:57.149Z,11.00
2018-03-03T09:59:57.106Z,12.30
2018-03-03T10:00:57.109Z,11.70
2018-03-03T10:02:05.922Z,10.20
2018-03-03T10:02:57.043Z,14.00
2018-03-03T10:03:57.027Z,11.70
2018-03-03T10:04:57.032Z,10.70
2018-03-03T10:05:56.990Z,10.00
2018-03-03T10:06:56.969Z,10.30
2018-03-03T10:07:56.976Z,10.70
2018-03-03T10:08:56.933Z,10.90
2018-03-03T10:09:56.915Z,9.10
2018-03-03T10:10:56.894Z,10.80
2018-03-03T10:11:56.872Z,13.70
2018-03-03T10:12:56.881Z,10.60
2018-03-03T10:13:56.834Z,11.30
2018-03-03T10:14:56.812Z,14.80
2018-03-03T10:15:56.825Z,9.30
2018-03-03T10:16:56.775Z,11.60
2018-03-03T10:17:56.758Z,9.80
2018-03-03T10:18:56.739Z,11.80
2018-03-03T10:19:56.728Z,9.50
2018-03-03T10:20:56.700Z,9.40
2018-03-03T10:21:56.726Z,9.80
2018-03-03T10:22:56.690Z,10.60
2018-03-03T10:23:56.656Z,10.90
2018-03-03T10:24:56.659Z,8.50
2018-03-03T10:25:56.632Z,10.70
2018-03-03T10:26:56.591Z,9.60
2018-03-03T10:27:56.567Z,7.90
2018-03-03T10:28:56.577Z,9.10
2018-03-03T10:29:56.537Z,10.80
2018-03-03T10:30:56.511Z,10.30
2018-03-03T10:31:56.501Z,8.80
2018-03-03T10:32:56.505Z,9.10
2018-03-03T10:33:56.467Z,10.90
2018-03-03T10:34:56.446Z,8.60
2018-03-03T10:35:56.424Z,8.70
2018-03-03T10:36:56.432Z,7.60
2018-03-03T10:37:56.383Z,7.50
2018-03-03T10:38:56.374Z,10.50
2018-03-03T10:39:56.363Z,7.90
2018-03-03T10:40:56.335Z,8.80
2018-03-03T10:41:56.334Z,10.30
2018-03-03T10:42:56.325Z,11.30
2018-03-03T10:43:56.308Z,12.70
2018-03-03T10:44:56.286Z,9.80
2018-03-03T10:45:56.246Z,11.20
2018-03-03T10:46:56.229Z,11.70
2018-03-03T10:47:56.236Z,12.90
2018-03-03T10:48:56.189Z,11.00
2018-03-03T10:49:56.201Z,12.50
2018-03-03T10:50:56.180Z,11.20
2018-03-03T10:51:56.166Z,11.30
2018-03-03T10:52:56.136Z,14.20
2018-03-03T10:53:56.119Z,12.10
2018-03-03T10:54:56.113Z,12.50
2018-03-03T10:55:56.112Z,10.40
2018-03-03T10:56:56.061Z,10.90
2018-03-03T10:57:56.033Z,12.30
2018-03-03T10:58:56.023Z,12.40
2018-03-03T10:59:56.000Z,11.70
2018-03-03T11:00:56.010Z,12.30
2018-03-03T11:01:55.968Z,14.20
2018-03-03T11:02:55.977Z,11.60
2018-03-03T11:03:55.945Z,10.20
2018-03-03T11:04:55.915Z,10.30
2018-03-03T11:05:55.932Z,12.70
2018-03-03T11:06:55.889Z,11.40
2018-03-03T11:07:55.887Z,9.80
2018-03-03T11:08:55.859Z,13.10
2018-03-03T11:09:55.853Z,11.00
2018-03-03T11:10:55.826Z,9.90
2018-03-03T11:11:56.059Z,10.70
2018-03-03T11:12:55.822Z,10.70
2018-03-03T11:13:55.782Z,10.50
2018-03-03T11:14:55.793Z,10.60
2018-03-03T11:15:55.750Z,11.10
2018-03-03T11:16:55.770Z,11.80
2018-03-03T11:17:55.728Z,9.80
2018-03-03T11:18:55.715Z,10.20
2018-03-03T11:19:55.702Z,11.60
2018-03-03T11:20:55.697Z,11.90
2018-03-03T11:21:55.691Z,12.30
2018-03-03T11:22:55.676Z,13.30
2018-03-03T11:23:55.674Z,12.10
2018-03-03T11:24:55.637Z,11.80
2018-03-03T11:25:55.632Z,10.40
2018-03-03T11:26:55.617Z,13.60
2018-03-03T11:27:55.596Z,14.20
2018-03-03T11:28:55.582Z,12.40
2018-03-03T11:29:55.579Z,13.30
2018-03-03T11:30:55.573Z,12.70
2018-03-03T11:31:55.558Z,12.70
2018-03-03T11:32:55.565Z,14.40
2018-03-03T11:33:55.522Z,12.00
2018-03-03T11:34:55.510Z,11.10
2018-03-03T11:35:55.522Z,11.30
2018-03-03T11:36:55.508Z,11.70
2018-03-03T11:37:55.492Z,12.40
2018-03-03T11:38:55.457Z,13.00
2018-03-03T11:39:55.449Z,11.30
2018-03-03T11:40:55.462Z,11.50
2018-03-03T11:41:55.451Z,11.30
2018-03-03T11:42:55.435Z,13.20
2018-03-03T11:43:55.400Z,10.90
2018-03-03T11:44:55.384Z,10.70
2018-03-03T11:45:55.397Z,10.90
2018-03-03T11:46:55.355Z,10.20
2018-03-03T11:47:55.370Z,10.90
2018-03-03T11:48:55.334Z,10.80
2018-03-03T11:49:55.320Z,10.10
2018-03-03T11:50:55.311Z,11.10
2018-03-03T11:51:55.301Z,13.90
2018-03-03T11:52:55.295Z,13.40
2018-03-03T11:53:55.302Z,13.20
2018-03-03T11:54:55.293Z,12.70
2018-03-03T11:55:55.254Z,14.70
2018-03-03T11:56:55.242Z,16.30
2018-03-03T11:57:55.241Z,16.90
2018-03-03T11:58:55.216Z,14.30
2018-03-03T11:59:55.236Z,11.80
2018-03-03T12:00:55.205Z,12.60
2018-03-03T12:01:55.186Z,11.00
2018-03-03T12:02:55.176Z,11.30
2018-03-03T12:03:55.758Z,12.90
2018-03-03T12:04:55.174Z,16.10
2018-03-03T12:05:55.163Z,13.60
2018-03-03T12:06:55.157Z,12.20
2018-03-03T12:07:55.141Z,12.00
2018-03-03T12:08:55.132Z,15.00
2018-03-03T12:09:55.122Z,14.30
2018-03-03T12:10:55.081Z,12.40
2018-03-03T12:11:55.070Z,12.00
2018-03-03T12:12:55.152Z,11.10
2018-03-03T12:13:55.081Z,8.20
2018-03-03T12:14:55.046Z,9.80
2018-03-03T12:15:55.061Z,10.60
2018-03-03T12:16:55.022Z,11.80
2018-03-03T12:17:55.009Z,10.60
2018-03-03T12:18:54.998Z,10.50
2018-03-03T12:19:54.993Z,9.10
2018-03-03T12:20:54.980Z,9.40
2018-03-03T12:21:54.989Z,9.70
2018-03-03T12:22:54.950Z,12.80
2018-03-03T12:23:54.943Z,10.70
2018-03-03T12:24:54.928Z,13.40
2018-03-03T12:25:54.948Z,13.30
2018-03-03T12:26:54.938Z,13.60
2018-03-03T12:27:54.933Z,13.50
2018-03-03T12:28:54.919Z,13.80
2018-03-03T12:29:54.907Z,14.10
2018-03-03T12:30:54.873Z,11.60
2018-03-03T12:31:54.862Z,13.00
2018-03-03T12:32:54.878Z,9.90
2018-03-03T12:33:54.872Z,9.70
2018-03-03T12:34:54.858Z,9.80
2018-03-03T12:35:54.828Z,9.40
2018-03-03T12:36:54.819Z,8.50
2018-03-03T12:37:54.806Z,9.30
2018-03-03T12:38:54.826Z,10.90
2018-03-03T12:39:54.802Z,10.30
2018-03-03T12:40:54.783Z,10.20
2018-03-03T12:41:54.783Z,9.20
2018-03-03T12:42:54.791Z,7.00
2018-03-03T12:43:54.756Z,6.80
2018-03-03T12:44:54.748Z,7.30
2018-03-03T12:45:54.733Z,6.50
2018-03-03T12:46:54.726Z,8.70
2018-03-03T12:47:54.719Z,7.50
2018-03-03T12:48:54.708Z,5.90
2018-03-03T12:49:54.732Z,5.60
2018-03-03T12:50:54.718Z,6.40
2018-03-03T12:51:54.684Z,7.00
2018-03-03T12:52:54.694Z,8.70
2018-03-03T12:53:54.666Z,7.90
2018-03-03T12:54:54.660Z,5.80
2018-03-03T12:55:54.757Z,6.00
2018-03-03T12:56:54.663Z,8.00
2018-03-03T12:57:54.662Z,7.60
2018-03-03T12:58:54.645Z,9.90
2018-03-03T12:59:54.606Z,10.50
2018-03-03T13:00:54.598Z,9.80
2018-03-03T13:01:54.585Z,9.00